Time;durP1;ratioP1;P1;durP2;ratioP2;P2;SDS_P1;SDS_P2;PMS_P1;PMS_P2;Temp;Humidity;BMP_temperature;BMP_pressure;BME280_temperature;BME280_humidity;BME280_pressure;Samples;Min_cycle;Max_cycle;Signal;HPM_P1;HPM_P2
2022/01/02 00:00:19;;;;;;;21.10;4.38;;;;;;;10.20;80.41;99941.69;5025860;28;20052;-81
2022/01/02 00:02:51;;;;;;;13.35;4.32;;;;;;;10.19;80.31;99931.00;5022822;28;20041;-81
2022/01/02 00:05:21;;;;;;;23.88;4.32;;;;;;;10.20;80.40;99925.06;5025467;28;20067;-81
2022/01/02 00:07:59;;;;;;;30.05;4.18;;;;;;;10.19;80.40;99917.94;5026392;28;20041;-81
2022/01/02 00:10:30;;;;;;;20.33;3.20;;;;;;;10.19;80.29;99929.00;5025919;28;20481;-80
2022/01/02 00:12:59;;;;;;;12.85;2.63;;;;;;;10.19;80.24;99929.00;5025124;28;20049;-81
2022/01/02 00:15:27;;;;;;;24.80;4.15;;;;;;;10.21;80.46;99926.69;5024877;28;20037;-81
2022/01/02 00:17:56;;;;;;;14.35;3.47;;;;;;;10.21;80.28;99915.63;5007416;28;20045;-81
2022/01/02 00:20:32;;;;;;;17.17;3.70;;;;;;;10.21;80.37;99926.69;5025143;28;20046;-80
2022/01/02 00:23:00;;;;;;;18.25;4.43;;;;;;;10.21;80.46;99923.13;5024353;28;20056;-81
2022/01/02 00:25:32;;;;;;;16.40;3.97;;;;;;;10.20;80.50;99897.41;5024826;28;20069;-80
2022/01/02 00:28:00;;;;;;;23.95;3.78;;;;;;;10.20;80.43;99902.13;5026301;28;20053;-80
2022/01/02 00:30:40;;;;;;;22.17;4.53;;;;;;;10.19;80.59;99900.56;5024381;28;20045;-80
2022/01/02 00:33:09;;;;;;;23.30;3.80;;;;;;;10.18;80.70;99899.75;5025939;28;20103;-79
2022/01/02 00:35:36;;;;;;;20.02;3.70;;;;;;;10.15;80.57;99911.53;5025765;28;20038;-79
2022/01/02 00:38:14;;;;;;;21.00;4.07;;;;;;;10.12;80.74;99903.13;5023824;28;20045;-80
2022/01/02 00:40:44;;;;;;;15.27;4.22;;;;;;;10.11;80.94;99898.78;5025340;28;20044;-79
2022/01/02 00:43:21;;;;;;;28.42;6.60;;;;;;;10.09;80.91;99882.53;5005535;28;20050;-79
2022/01/02 00:45:51;;;;;;;21.50;3.70;;;;;;;10.08;80.84;99888.44;5025843;28;20041;-80
2022/01/02 00:48:32;;;;;;;20.33;3.40;;;;;;;10.05;80.97;99884.44;5025131;28;22121;-79
2022/01/02 00:51:14;;;;;;;24.77;3.97;;;;;;;10.01;80.85;99883.53;5024572;28;20029;-80
2022/01/02 00:53:46;;;;;;;18.33;3.78;;;;;;;10.02;81.10;99879.63;5023719;28;20052;-80
2022/01/02 00:56:18;;;;;;;20.73;4.47;;;;;;;9.98;81.07;99867.66;5025559;28;20509;-79
2022/01/02 00:58:58;;;;;;;18.10;4.75;;;;;;;9.98;81.36;99870.44;5025086;28;20037;-79
2022/01/02 01:01:29;;;;;;;14.77;4.75;;;;;;;9.97;81.17;99863.31;5024852;28;20072;-79
2022/01/02 01:03:56;;;;;;;23.30;3.80;;;;;;;9.97;81.55;99871.59;5023544;28;20033;-79
2022/01/02 01:06:25;;;;;;;26.23;4.05;;;;;;;9.98;81.12;99867.66;5025780;28;20088;-80
2022/01/02 01:08:56;;;;;;;27.67;4.60;;;;;;;9.99;81.27;99872.03;5023852;28;20053;-79
2022/01/02 01:11:28;;;;;;;15.25;4.40;;;;;;;10.02;81.26;99863.03;5025430;28;20044;-80
2022/01/02 01:13:59;;;;;;;26.80;5.43;;;;;;;10.03;81.08;99864.63;5020641;28;20045;-79
2022/01/02 01:16:26;;;;;;;19.15;4.10;;;;;;;10.03;81.07;99858.31;5021168;28;20067;-79
2022/01/02 01:18:54;;;;;;;11.90;2.90;;;;;;;10.04;81.11;99846.06;5026334;28;20037;-80
2022/01/02 01:21:20;;;;;;;25.25;3.70;;;;;;;10.06;81.15;99846.53;5024889;28;20045;-80
2022/01/02 01:23:47;;;;;;;22.33;4.30;;;;;;;10.05;80.80;99828.31;5023962;28;20127;-79
2022/01/02 01:26:16;;;;;;;21.83;4.18;;;;;;;10.06;80.87;99841.00;5024990;28;20521;-79
2022/01/02 01:28:43;;;;;;;22.58;3.70;;;;;;;10.05;80.95;99840.19;4999400;28;20684;-80
2022/01/02 01:31:10;;;;;;;25.73;3.72;;;;;;;10.04;80.94;99838.56;5023924;28;20382;-80
2022/01/02 01:33:37;;;;;;;22.67;4.50;;;;;;;10.03;81.10;99827.88;5025819;28;20045;-80
2022/01/02 01:36:04;;;;;;;22.58;4.80;;;;;;;10.03;80.92;99841.72;5009928;28;20065;-80
2022/01/02 01:38:32;;;;;;;22.02;4.47;;;;;;;10.02;81.06;99827.06;5022371;28;20620;-80
2022/01/02 01:41:05;;;;;;;23.58;4.68;;;;;;;10.01;81.33;99827.41;5025362;28;20069;-80
2022/01/02 01:43:52;;;;;;;20.50;3.88;;;;;;;10.00;81.26;99825.84;5026882;28;20048;-80
2022/01/02 01:46:19;;;;;;;19.98;4.57;;;;;;;9.98;81.20;99819.88;5021948;28;20107;-80
2022/01/02 01:48:55;;;;;;;15.25;3.55;;;;;;;9.95;81.39;99807.59;5023218;28;20034;-80
2022/01/02 01:51:23;;;;;;;31.25;5.05;;;;;;;9.92;81.57;99800.00;5023300;28;20033;-79
2022/01/02 01:53:50;;;;;;;22.77;4.65;;;;;;;9.91;81.68;99800.34;5008055;28;20111;-79
2022/01/02 01:56:17;;;;;;;19.77;3.67;;;;;;;9.90;81.57;99796.78;5024840;28;20038;-80
2022/01/02 01:58:44;;;;;;;21.75;4.97;;;;;;;9.89;81.89;99786.91;5023044;28;20095;-80
2022/01/02 02:01:11;;;;;;;22.50;4.85;;;;;;;9.88;82.10;99787.25;5024859;28;20111;-80
2022/01/02 02:03:38;;;;;;;17.77;5.55;;;;;;;9.85;82.05;99786.03;5023274;28;20045;-80
2022/01/02 02:06:06;;;;;;;20.00;3.67;;;;;;;9.84;82.07;99784.44;5025227;28;20029;-80
2022/01/02 02:08:32;;;;;;;18.85;4.00;;;;;;;9.83;82.18;99793.88;5026196;28;20045;-79
2022/01/02 02:10:59;;;;;;;30.70;4.45;;;;;;;9.84;82.06;99791.94;5025269;28;20045;-79
2022/01/02 02:13:26;;;;;;;21.33;4.25;;;;;;;9.84;82.19;99783.63;5023422;28;20732;-79
2022/01/02 02:15:56;;;;;;;19.55;3.40;;;;;;;9.82;82.15;99786.78;5025857;28;20547;-79
2022/01/02 02:18:23;;;;;;;25.67;4.20;;;;;;;9.82;82.24;99767.44;5025170;28;20103;-80
2022/01/02 02:20:49;;;;;;;15.65;3.80;;;;;;;9.83;82.02;99788.34;5024343;28;20103;-79
2022/01/02 02:23:16;;;;;;;26.20;5.50;;;;;;;9.80;82.24;99781.59;5023264;28;20037;-80
2022/01/02 02:25:43;;;;;;;18.67;2.90;;;;;;;9.79;82.00;99779.19;5010728;28;20137;-80
2022/01/02 02:28:13;;;;;;;21.73;3.70;;;;;;;9.80;82.03;99773.31;5027302;28;20045;-80
2022/01/02 02:30:43;;;;;;;20.08;4.22;;;;;;;9.81;81.90;99774.09;5028714;28;20496;-81
2022/01/02 02:33:11;;;;;;;19.80;3.03;;;;;;;9.80;81.87;99775.25;5028540;28;20358;-80
2022/01/02 02:35:41;;;;;;;20.83;4.88;;;;;;;9.78;82.08;99761.00;5029818;28;20135;-80
2022/01/02 02:38:10;;;;;;;18.55;3.53;;;;;;;9.75;81.96;99772.78;5027004;28;20098;-80
2022/01/02 02:40:38;;;;;;;15.38;3.58;;;;;;;9.74;82.00;99776.72;5027057;28;20837;-80
2022/01/02 02:43:54;;;;;;;18.88;2.92;;;;;;;9.73;82.12;99773.16;5029759;28;20088;-79
2022/01/02 02:49:01;;;;;;;24.15;3.22;;;;;;;9.66;82.33;99773.00;5026890;28;20465;-79
2022/01/02 02:54:08;;;;;;;16.23;3.10;;;;;;;9.67;82.30;99768.28;5024627;28;20076;-79
2022/01/02 02:56:44;;;;;;;25.27;4.10;;;;;;;9.65;82.24;99765.06;5028043;28;20045;-80
2022/01/02 02:59:12;;;;;;;21.10;3.28;;;;;;;9.64;82.20;99763.47;5028926;28;20034;-80
2022/01/02 03:01:41;;;;;;;33.20;6.30;;;;;;;9.62;82.28;99765.78;5011654;28;20041;-80
2022/01/02 03:04:08;;;;;;;20.52;4.15;;;;;;;9.59;82.53;99772.03;5038655;28;20549;-80
2022/01/02 03:06:35;;;;;;;17.52;3.95;;;;;;;9.56;82.48;99765.28;5027135;28;20053;-80
2022/01/02 03:09:08;;;;;;;18.25;3.28;;;;;;;9.56;82.49;99761.72;5026695;28;20084;-80
2022/01/02 03:11:40;;;;;;;17.30;3.13;;;;;;;9.55;82.70;99763.69;5011017;28;20168;-80
2022/01/02 03:14:11;;;;;;;17.10;4.20;;;;;;;9.53;82.84;99759.69;5028071;28;20037;-80
2022/01/02 03:16:39;;;;;;;11.23;2.28;;;;;;;9.51;82.93;99754.53;5027054;28;20039;-79
2022/01/02 03:19:07;;;;;;;12.85;3.22;;;;;;;9.50;82.58;99760.41;5027842;28;20042;-80
2022/01/02 03:21:34;;;;;;;19.25;3.38;;;;;;;9.48;82.56;99757.19;5027782;28;21422;-79
2022/01/02 03:24:01;;;;;;;13.75;2.55;;;;;;;9.45;82.72;99752.41;5027325;28;20125;-80
2022/01/02 03:26:28;;;;;;;17.13;2.88;;;;;;;9.43;82.67;99743.66;5027101;28;20041;-80
2022/01/02 03:28:55;;;;;;;12.55;3.15;;;;;;;9.40;82.36;99747.94;5008998;28;20043;-80
2022/01/02 03:31:21;;;;;;;19.38;2.75;;;;;;;9.36;83.08;99736.03;5027142;28;20132;-79
2022/01/02 03:33:49;;;;;;;15.65;2.38;;;;;;;9.33;82.81;99731.22;5024481;28;20033;-79
2022/01/02 03:36:18;;;;;;;15.45;2.75;;;;;;;9.31;83.04;99738.28;5036107;28;20107;-79
2022/01/02 03:38:45;;;;;;;15.52;2.50;;;;;;;9.31;82.81;99739.09;5028452;28;20040;-79
2022/01/02 03:41:12;;;;;;;13.55;2.80;;;;;;;9.31;83.27;99727.25;5026920;28;20045;-79
2022/01/02 03:43:39;;;;;;;16.10;2.60;;;;;;;9.29;83.18;99737.84;5027145;28;20120;-79
2022/01/02 03:46:06;;;;;;;18.77;2.65;;;;;;;9.28;83.27;99722.44;5024349;28;20107;-79
2022/01/02 03:48:34;;;;;;;17.25;2.38;;;;;;;9.27;83.38;99721.63;5025470;28;20473;-79
2022/01/02 03:51:04;;;;;;;14.30;2.47;;;;;;;9.28;83.43;99716.91;5021758;28;20054;-79
2022/01/02 03:53:32;;;;;;;15.75;3.45;;;;;;;9.26;83.53;99724.75;5020088;28;20049;-79
2022/01/02 03:55:59;;;;;;;19.10;2.00;;;;;;;9.25;83.36;99715.66;5025389;28;20397;-79
2022/01/02 03:58:25;;;;;;;8.25;2.83;;;;;;;9.28;83.45;99711.38;5010130;28;20067;-79
2022/01/02 04:00:52;;;;;;;9.38;2.33;;;;;;;9.27;83.68;99715.28;5025534;28;20800;-79
2022/01/02 04:03:19;;;;;;;15.75;2.60;;;;;;;9.25;83.31;99707.38;5023162;28;20116;-79
2022/01/02 04:05:46;;;;;;;12.85;1.95;;;;;;;9.25;83.31;99712.91;5026934;28;20116;-79
2022/01/02 04:08:13;;;;;;;15.60;2.80;;;;;;;9.24;83.45;99710.50;5026526;28;20112;-79
2022/01/02 04:10:40;;;;;;;12.32;2.03;;;;;;;9.24;83.62;99705.00;5026655;28;20564;-79
2022/01/02 04:13:07;;;;;;;17.70;3.85;;;;;;;9.24;83.65;99707.75;5025719;28;20037;-79
2022/01/02 04:15:34;;;;;;;14.75;2.42;;;;;;;9.22;83.66;99697.06;5024674;28;20708;-79
2022/01/02 04:18:02;;;;;;;24.55;4.00;;;;;;;9.24;83.68;99699.47;5025549;28;20173;-79
2022/01/02 04:20:29;;;;;;;13.45;2.17;;;;;;;9.24;83.70;99694.72;5028444;28;20072;-79
2022/01/02 04:22:56;;;;;;;14.45;2.50;;;;;;;9.22;83.82;99693.50;5025287;28;20640;-79
2022/01/02 04:25:23;;;;;;;18.42;3.05;;;;;;;9.21;83.77;99694.66;5027794;28;20041;-79
2022/01/02 04:27:50;;;;;;;12.27;2.05;;;;;;;9.19;83.89;99698.56;5007351;28;20362;-79
2022/01/02 04:30:17;;;;;;;16.05;2.30;;;;;;;9.18;83.77;99694.22;5023021;28;20037;-79
2022/01/02 04:32:48;;;;;;;13.82;4.60;;;;;;;9.18;83.72;99697.00;5025714;28;20894;-79
2022/01/02 04:35:15;;;;;;;9.73;2.53;;;;;;;9.18;84.07;99697.00;5027753;28;20432;-79
2022/01/02 04:37:43;;;;;;;19.95;2.55;;;;;;;9.18;83.90;99691.47;5008700;28;20497;-79
2022/01/02 04:40:10;;;;;;;17.33;4.55;;;;;;;9.18;83.69;99697.00;5025828;28;20641;-79
2022/01/02 04:42:37;;;;;;;17.17;5.60;;;;;;;9.18;83.60;99702.53;5027175;28;20068;-79
2022/01/02 04:45:05;;;;;;;16.95;2.65;;;;;;;9.17;83.75;99695.38;5027602;28;20044;-80
2022/01/02 04:47:34;;;;;;;9.43;2.50;;;;;;;9.19;83.68;99700.53;5025800;28;20049;-79
2022/01/02 04:50:04;;;;;;;12.63;2.17;;;;;;;9.18;83.62;99688.72;5022860;28;20137;-79
2022/01/02 04:52:31;;;;;;;13.25;3.53;;;;;;;9.17;83.39;99689.06;5025531;28;20049;-79
2022/01/02 04:55:00;;;;;;;14.77;2.63;;;;;;;9.16;83.55;99684.69;5009499;28;20050;-79
2022/01/02 04:57:26;;;;;;;14.13;2.47;;;;;;;9.17;83.64;99691.81;5027029;28;20116;-79
2022/01/02 04:59:53;;;;;;;19.67;2.38;;;;;;;9.16;83.36;99692.97;5007426;28;20339;-79
2022/01/02 05:02:20;;;;;;;15.00;2.45;;;;;;;9.15;83.47;99692.19;5025704;28;20405;-80
2022/01/02 05:04:47;;;;;;;13.05;1.95;;;;;;;9.14;83.14;99690.59;5025794;28;20033;-79
2022/01/02 05:07:14;;;;;;;26.00;3.65;;;;;;;9.13;83.22;99688.19;5024514;28;20033;-79
2022/01/02 05:09:41;;;;;;;14.73;2.53;;;;;;;9.12;83.30;99684.63;5023506;28;20049;-79
2022/01/02 05:12:09;;;;;;;13.75;2.53;;;;;;;9.09;83.29;99688.09;5025289;28;20196;-79
2022/01/02 05:14:36;;;;;;;12.43;2.42;;;;;;;9.07;83.25;99684.09;5025341;28;20099;-79
2022/01/02 05:17:03;;;;;;;8.20;1.63;;;;;;;9.06;83.13;99679.72;5020759;28;20441;-79
2022/01/02 05:19:30;;;;;;;14.13;2.22;;;;;;;9.05;83.44;99673.41;5025577;28;20038;-79
2022/01/02 05:21:58;;;;;;;27.15;3.10;;;;;;;9.03;83.17;99664.69;5023460;28;20049;-79
2022/01/02 05:24:25;;;;;;;10.90;2.15;;;;;;;9.05;83.12;99664.34;5023959;28;20116;-79
2022/01/02 05:26:53;;;;;;;11.60;2.53;;;;;;;9.03;83.07;99659.16;5008289;28;20041;-79
2022/01/02 05:29:22;;;;;;;14.23;2.28;;;;;;;9.02;83.13;99654.81;5022223;28;20141;-79
2022/01/02 05:31:49;;;;;;;10.93;2.25;;;;;;;8.99;83.17;99638.97;5024180;28;20041;-79
2022/01/02 05:34:16;;;;;;;13.50;2.53;;;;;;;9.00;83.24;99650.84;5027740;28;20033;-79
2022/01/02 05:36:48;;;;;;;17.23;2.47;;;;;;;9.01;82.85;99647.69;5023239;28;20080;-80
2022/01/02 05:39:19;;;;;;;8.45;1.73;;;;;;;8.99;83.07;99666.59;5026701;28;20033;-79
2022/01/02 05:41:48;;;;;;;15.15;3.10;;;;;;;8.99;82.90;99650.03;5023752;28;20069;-79
2022/01/02 05:44:15;;;;;;;14.18;2.97;;;;;;;8.96;82.76;99653.50;5027149;28;20060;-79
2022/01/02 05:46:42;;;;;;;16.90;4.32;;;;;;;8.97;83.08;99648.78;5007210;28;20040;-79
2022/01/02 05:49:10;;;;;;;13.18;2.85;;;;;;;8.95;83.13;99640.84;5023039;28;20061;-79
2022/01/02 05:51:37;;;;;;;14.60;2.17;;;;;;;8.96;83.01;99656.25;5025907;28;20038;-79
2022/01/02 05:54:04;;;;;;;12.88;2.13;;;;;;;8.96;82.86;99656.25;5025187;28;20071;-79
2022/01/02 05:56:32;;;;;;;13.55;1.92;;;;;;;8.93;82.91;99645.94;5007241;28;20053;-79
2022/01/02 05:58:59;;;;;;;11.25;2.30;;;;;;;8.91;83.16;99642.75;5023562;28;20045;-78
2022/01/02 06:01:26;;;;;;;15.40;2.72;;;;;;;8.89;82.93;99636.78;5025953;28;20038;-79
2022/01/02 06:03:53;;;;;;;13.13;2.08;;;;;;;8.91;82.87;99633.66;5009593;28;20060;-79
2022/01/02 06:06:20;;;;;;;13.45;1.85;;;;;;;8.90;82.95;99643.09;5006305;28;20057;-79
2022/01/02 06:08:47;;;;;;;11.25;2.08;;;;;;;8.91;82.94;99637.22;5022476;28;20045;-79
2022/01/02 06:11:13;;;;;;;13.18;1.80;;;;;;;8.90;82.86;99624.56;5022848;28;20119;-79
2022/01/02 06:13:42;;;;;;;22.88;2.20;;;;;;;8.91;82.79;99620.66;5025978;28;20880;-79
2022/01/02 06:16:11;;;;;;;14.55;2.90;;;;;;;8.89;82.81;99628.50;5024633;28;20573;-79
2022/01/02 06:18:38;;;;;;;11.00;3.17;;;;;;;8.88;82.83;99631.63;5009221;28;20128;-79
2022/01/02 06:21:05;;;;;;;13.10;1.63;;;;;;;8.88;82.79;99626.09;5025464;28;20057;-79
2022/01/02 06:23:33;;;;;;;11.82;2.28;;;;;;;8.87;82.72;99627.28;5024490;28;20091;-79
2022/01/02 06:26:00;;;;;;;9.02;1.30;;;;;;;8.88;82.78;99610.34;5024136;28;20033;-79
2022/01/02 06:28:27;;;;;;;8.35;1.73;;;;;;;8.89;82.57;99606.44;5026140;28;20128;-79
2022/01/02 06:30:54;;;;;;;12.20;2.53;;;;;;;8.91;82.81;99608.81;5008835;28;20489;-79
2022/01/02 06:33:20;;;;;;;11.18;1.98;;;;;;;8.89;82.57;99605.63;5025412;28;20649;-79
2022/01/02 06:35:49;;;;;;;7.43;2.03;;;;;;;8.88;82.78;99615.88;5023894;28;20049;-79
2022/01/02 06:38:19;;;;;;;14.90;2.47;;;;;;;8.86;82.76;99607.16;5024023;28;20037;-79
2022/01/02 06:40:47;;;;;;;11.35;2.85;;;;;;;8.86;82.77;99614.63;5006791;28;20103;-79
2022/01/02 06:43:16;;;;;;;12.65;2.05;;;;;;;8.87;82.92;99607.97;5023069;28;20103;-79
2022/01/02 06:45:44;;;;;;;12.98;2.95;;;;;;;8.86;82.55;99604.38;5022428;28;20489;-79
2022/01/02 06:48:11;;;;;;;7.63;1.60;;;;;;;8.88;82.60;99615.88;5024355;28;20445;-79
2022/01/02 06:50:41;;;;;;;11.90;2.30;;;;;;;8.88;82.38;99598.50;5025250;28;20037;-79
2022/01/02 06:53:10;;;;;;;18.77;2.78;;;;;;;8.88;82.69;99581.94;5024048;28;20044;-79
2022/01/02 06:55:37;;;;;;;7.38;1.52;;;;;;;8.91;82.39;99595.81;5006584;28;20134;-79
2022/01/02 06:58:05;;;;;;;10.93;2.17;;;;;;;8.91;82.39;99587.53;5024625;28;20148;-79
2022/01/02 07:00:33;;;;;;;12.32;1.67;;;;;;;8.91;82.19;99603.28;5021287;28;20037;-79
2022/01/02 07:03:00;;;;;;;9.18;1.20;;;;;;;8.91;82.18;99600.53;5024413;28;20038;-79
2022/01/02 07:05:27;;;;;;;9.48;1.33;;;;;;;8.91;82.00;99595.81;5023780;28;20042;-79
2022/01/02 07:07:54;;;;;;;9.75;1.55;;;;;;;8.93;81.99;99587.97;5006128;28;20136;-79
2022/01/02 07:10:21;;;;;;;8.48;1.35;;;;;;;8.96;81.80;99600.25;5007325;28;20030;-79
2022/01/02 07:12:48;;;;;;;9.38;2.33;;;;;;;8.93;81.86;99590.72;5027098;28;20065;-79
2022/01/02 07:15:14;;;;;;;7.53;1.92;;;;;;;8.92;81.79;99591.09;5025889;28;20148;-79
2022/01/02 07:17:42;;;;;;;11.48;1.58;;;;;;;8.90;81.85;99590.66;5028088;28;20473;-78
2022/01/02 07:20:10;;;;;;;7.63;2.08;;;;;;;8.91;81.84;99592.25;5027513;28;20385;-78
2022/01/02 07:22:40;;;;;;;8.60;2.10;;;;;;;8.91;81.76;99582.03;5010357;28;20037;-79
2022/01/02 07:25:10;;;;;;;14.30;2.42;;;;;;;8.92;81.81;99589.13;5007544;28;20044;-79
2022/01/02 07:27:38;;;;;;;15.50;2.42;;;;;;;8.93;81.64;99595.44;5024933;28;20953;-79
2022/01/02 07:30:06;;;;;;;12.43;1.63;;;;;;;8.93;81.77;99596.25;5027946;28;20049;-79
2022/01/02 07:32:34;;;;;;;14.35;1.88;;;;;;;8.92;81.69;99605.69;5028216;28;20036;-78
2022/01/02 07:35:00;;;;;;;14.57;1.77;;;;;;;8.94;81.70;99577.75;5029235;28;20107;-78
2022/01/02 07:37:27;;;;;;;12.40;2.80;;;;;;;8.89;81.43;99575.25;5025317;28;20045;-79
2022/01/02 07:39:54;;;;;;;9.60;1.92;;;;;;;8.87;81.49;99575.63;5010912;28;21872;-78
2022/01/02 07:42:21;;;;;;;7.95;1.73;;;;;;;8.89;81.78;99578.03;5028172;28;20046;-79
2022/01/02 07:44:48;;;;;;;14.48;2.47;;;;;;;8.90;81.39;99563.84;5027480;28;20144;-79
2022/01/02 07:47:15;;;;;;;8.25;2.08;;;;;;;8.91;81.57;99554.41;5027199;28;20564;-78
2022/01/02 07:49:42;;;;;;;8.15;2.70;;;;;;;8.93;81.50;99578.88;5010956;28;20029;-78
2022/01/02 07:52:09;;;;;;;11.77;1.65;;;;;;;8.94;81.68;99570.25;5010959;28;20053;-79
2022/01/02 07:54:36;;;;;;;12.43;1.60;;;;;;;8.93;81.49;99582.44;5010291;28;20045;-79
2022/01/02 07:57:03;;;;;;;10.40;1.40;;;;;;;8.92;81.42;99583.59;5026751;28;20596;-78
2022/01/02 07:59:30;;;;;;;11.07;1.65;;;;;;;8.92;81.70;99588.34;5027561;28;20091;-78
2022/01/02 08:02:04;;;;;;;13.55;2.17;;;;;;;8.91;81.65;99582.03;5027474;28;20044;-79
2022/01/02 08:04:30;;;;;;;14.63;1.63;;;;;;;8.91;81.59;99587.53;5027041;28;20041;-78
2022/01/02 08:06:57;;;;;;;11.68;2.97;;;;;;;8.92;81.51;99572.56;5027188;28;20041;-79
2022/01/02 08:09:24;;;;;;;8.27;1.52;;;;;;;8.92;81.69;99583.59;5023966;28;20033;-79
2022/01/02 08:11:51;;;;;;;13.70;1.63;;;;;;;8.93;81.55;99574.16;5026882;28;20053;-78
2022/01/02 08:14:19;;;;;;;11.98;1.38;;;;;;;8.91;81.39;99582.03;5026228;28;20096;-79
2022/01/02 08:16:46;;;;;;;14.07;1.67;;;;;;;8.91;81.44;99576.50;5024573;28;20043;-78
2022/01/02 08:19:13;;;;;;;12.23;1.65;;;;;;;8.94;81.52;99570.25;5028073;28;20061;-78
2022/01/02 08:21:40;;;;;;;13.00;1.30;;;;;;;8.94;81.66;99584.06;5023183;28;20045;-79
2022/01/02 08:24:08;;;;;;;13.00;1.70;;;;;;;8.96;81.69;99584.50;5023985;28;20065;-79
2022/01/02 08:26:35;;;;;;;11.32;1.95;;;;;;;8.97;81.17;99579.78;5010235;28;20362;-79
2022/01/02 08:29:01;;;;;;;7.82;1.77;;;;;;;8.97;81.50;99580.59;5010569;28;20115;-78
2022/01/02 08:31:30;;;;;;;10.77;1.90;;;;;;;8.96;81.51;99589.22;5011430;28;20075;-79
2022/01/02 08:33:57;;;;;;;14.90;2.55;;;;;;;8.97;81.78;99590.81;5026465;28;20061;-78
2022/01/02 08:36:26;;;;;;;8.60;1.58;;;;;;;8.99;81.49;99591.25;5025502;28;20045;-79
2022/01/02 08:38:53;;;;;;;7.35;1.77;;;;;;;9.00;81.56;99590.88;5027240;28;20465;-78
2022/01/02 08:41:20;;;;;;;7.40;1.30;;;;;;;8.97;81.76;99580.59;5025130;28;20037;-79
2022/01/02 08:43:46;;;;;;;10.75;1.98;;;;;;;8.97;81.72;99594.38;5006429;28;20089;-79
2022/01/02 08:46:14;;;;;;;6.88;1.38;;;;;;;8.97;81.66;99586.09;5025188;28;20053;-78
2022/01/02 08:48:41;;;;;;;8.48;2.33;;;;;;;8.98;81.72;99582.16;5026983;28;20611;-78
2022/01/02 08:51:10;;;;;;;14.32;2.05;;;;;;;9.02;81.82;99577.53;5025289;28;20041;-78
2022/01/02 08:53:39;;;;;;;6.53;1.92;;;;;;;9.03;81.94;99570.03;5019237;28;20091;-78
2022/01/02 08:56:05;;;;;;;9.05;2.00;;;;;;;9.06;81.71;99583.91;5005100;28;20065;-79
2022/01/02 08:58:32;;;;;;;11.88;2.38;;;;;;;9.07;81.81;99591.03;5026064;28;20535;-78
2022/01/02 09:01:02;;;;;;;16.45;3.10;;;;;;;9.09;81.83;99588.72;5022125;28;20150;-78
2022/01/02 09:03:30;;;;;;;8.20;1.70;;;;;;;9.10;81.97;99568.22;5024166;28;20041;-78
2022/01/02 09:05:57;;;;;;;14.23;2.63;;;;;;;9.13;81.72;99580.50;5023963;28;20041;-77
2022/01/02 09:08:28;;;;;;;7.93;1.40;;;;;;;9.15;81.83;99570.69;5024600;28;20124;-78
2022/01/02 09:10:56;;;;;;;7.07;1.92;;;;;;;9.17;81.82;99573.88;5024750;28;20296;-78
2022/01/02 09:13:26;;;;;;;6.93;1.60;;;;;;;9.15;81.80;99562.41;5023733;28;20045;-78
2022/01/02 09:15:54;;;;;;;8.23;2.33;;;;;;;9.18;81.74;99580.22;5026243;28;20507;-78
2022/01/02 09:18:21;;;;;;;7.63;1.85;;;;;;;9.17;81.83;99562.84;5025049;28;20037;-78
2022/01/02 09:20:48;;;;;;;12.48;2.28;;;;;;;9.18;81.84;99569.97;5023931;28;20132;-78
2022/01/02 09:23:15;;;;;;;9.27;1.98;;;;;;;9.19;81.74;99566.03;5022465;28;20263;-78
2022/01/02 09:25:42;;;;;;;11.75;1.73;;;;;;;9.18;81.68;99545.13;5025266;28;20120;-79
2022/01/02 09:28:09;;;;;;;10.95;1.40;;;;;;;9.22;82.03;99563.69;5021535;28;20072;-79
2022/01/02 09:30:36;;;;;;;17.65;3.78;;;;;;;9.22;82.01;99541.59;5024064;28;20144;-79
2022/01/02 09:33:08;;;;;;;15.68;3.30;;;;;;;9.23;81.83;99545.97;5024617;28;20187;-79
2022/01/02 09:35:41;;;;;;;6.27;2.30;;;;;;;9.22;81.88;99556.22;5023897;28;20171;-79
2022/01/02 09:38:09;;;;;;;16.35;3.17;;;;;;;9.22;81.79;99542.41;5024697;28;20040;-78
2022/01/02 09:40:40;;;;;;;10.95;2.00;;;;;;;9.25;81.96;99549.97;5018154;28;20060;-78
2022/01/02 09:43:07;;;;;;;14.93;2.17;;;;;;;9.25;82.01;99546.41;5024492;28;20068;-79
2022/01/02 09:45:38;;;;;;;10.43;2.55;;;;;;;9.29;82.18;99539.00;5023440;28;20820;-78
2022/01/02 09:48:07;;;;;;;26.13;3.10;;;;;;;9.31;82.08;99528.38;5021039;28;20064;-80
2022/01/02 09:50:35;;;;;;;13.18;2.05;;;;;;;9.34;81.95;99522.94;5023240;28;20121;-79
2022/01/02 09:53:05;;;;;;;9.10;1.92;;;;;;;9.38;81.75;99539.53;5008482;28;20055;-78
2022/01/02 09:55:32;;;;;;;11.60;2.42;;;;;;;9.39;81.48;99541.16;5025134;28;20539;-79
2022/01/02 09:58:00;;;;;;;11.48;3.75;;;;;;;9.44;81.14;99532.56;5009396;28;20045;-78
2022/01/02 10:00:28;;;;;;;14.15;1.85;;;;;;;9.47;80.93;99521.59;5024200;28;20050;-78
2022/01/02 10:02:57;;;;;;;8.93;2.13;;;;;;;9.53;80.93;99535.91;5005476;28;20045;-79
2022/01/02 10:05:26;;;;;;;15.13;2.30;;;;;;;9.55;80.81;99530.78;5008706;28;20057;-78
2022/01/02 10:07:55;;;;;;;10.07;1.67;;;;;;;9.59;80.73;99528.88;5027344;28;20462;-78
2022/01/02 10:10:32;;;;;;;10.52;2.35;;;;;;;9.62;80.58;99522.63;5023781;28;20037;-79
2022/01/02 10:13:01;;;;;;;16.15;3.45;;;;;;;9.64;80.57;99523.84;5021321;28;20065;-79
2022/01/02 10:15:28;;;;;;;13.77;3.22;;;;;;;9.70;80.63;99530.66;5024341;28;20069;-80
2022/01/02 10:17:58;;;;;;;7.20;1.90;;;;;;;9.73;80.36;99527.19;5024410;28;20045;-80
2022/01/02 10:20:27;;;;;;;11.40;2.08;;;;;;;9.76;80.20;99529.22;5021628;28;20170;-79
2022/01/02 10:23:07;;;;;;;14.50;2.25;;;;;;;9.81;79.97;99541.91;5020361;28;20118;-79
2022/01/02 10:25:43;;;;;;;7.38;1.35;;;;;;;9.82;79.95;99527.72;5023239;28;20065;-79
2022/01/02 10:28:20;;;;;;;10.63;1.77;;;;;;;9.84;79.83;99530.13;5026781;28;20095;-79
2022/01/02 10:30:49;;;;;;;8.77;1.90;;;;;;;9.88;79.65;99525.44;5023601;28;20489;-79
2022/01/02 10:33:17;;;;;;;9.73;1.52;;;;;;;9.89;79.39;99526.25;5022765;28;20045;-79
2022/01/02 10:35:44;;;;;;;10.13;2.28;;;;;;;9.90;79.00;99538.91;5024279;28;20049;-80
2022/01/02 10:38:16;;;;;;;7.20;1.05;;;;;;;9.90;78.62;99536.91;5023617;28;21268;-80
2022/01/02 10:40:43;;;;;;;12.75;1.35;;;;;;;9.91;78.51;99524.69;5022482;28;20033;-79
2022/01/02 10:43:28;;;;;;;10.30;1.48;;;;;;;9.89;76.94;99521.50;5024121;28;20037;-79
2022/01/02 10:45:58;;;;;;;6.05;0.75;;;;;;;9.87;77.51;99518.31;5023645;28;20052;-80
2022/01/02 10:48:42;;;;;;;4.28;1.10;;;;;;;9.87;76.48;99523.84;5008830;28;20049;-81
2022/01/02 10:51:17;;;;;;;9.05;0.98;;;;;;;9.85;76.33;99519.88;5028750;28;20045;-80
2022/01/02 10:53:54;;;;;;;10.30;1.83;;;;;;;9.84;75.76;99513.53;5010637;28;20052;-79
2022/01/02 10:56:25;;;;;;;6.82;1.33;;;;;;;9.84;76.38;99519.06;5028509;28;20041;-79
2022/01/02 10:58:57;;;;;;;;;;;;;;;9.81;74.34;99519.81;5024979;28;20041;-79
2022/01/02 11:01:24;;;;;;;3.95;1.05;;;;;;;9.82;76.05;99520.59;5027150;28;19929;-79
2022/01/02 11:03:52;;;;;;;2.65;0.57;;;;;;;9.81;75.95;99528.09;5024561;28;20062;-79
2022/01/02 11:06:31;;;;;;;3.35;0.90;;;;;;;9.79;75.30;99531.22;5026782;28;20099;-79
2022/01/02 11:08:59;;;;;;;2.70;0.65;;;;;;;9.81;76.16;99525.31;5027671;28;20068;-78
2022/01/02 11:11:27;;;;;;;3.33;0.70;;;;;;;9.81;75.89;99519.81;5025902;28;20382;-79
2022/01/02 11:13:56;;;;;;;5.35;0.77;;;;;;;9.80;76.22;99523.72;5009742;28;21534;-79
2022/01/02 11:16:24;;;;;;;5.88;0.85;;;;;;;9.80;75.99;99523.72;5024372;28;20091;-79
2022/01/02 11:18:52;;;;;;;5.13;0.80;;;;;;;9.82;76.06;99517.84;5026955;28;20041;-79
2022/01/02 11:21:21;;;;;;;3.17;0.70;;;;;;;9.83;75.88;99517.44;5029159;28;20432;-79
2022/01/02 11:24:03;;;;;;;6.78;2.28;;;;;;;9.83;75.90;99517.44;5026317;28;20092;-79
2022/01/02 11:26:54;;;;;;;3.85;0.85;;;;;;;9.86;75.92;99511.19;5009966;28;20037;-80
2022/01/02 11:29:28;;;;;;;6.10;1.25;;;;;;;9.85;75.85;99515.13;5024179;28;20053;-79
2022/01/02 11:31:55;;;;;;;5.88;0.90;;;;;;;9.87;75.85;99514.75;5026263;28;20081;-80
2022/01/02 11:34:32;;;;;;;6.25;0.63;;;;;;;9.90;76.05;99517.56;5031172;28;20037;-79
2022/01/02 11:37:11;;;;;;;4.18;0.52;;;;;;;9.91;75.52;99519.16;5026786;28;20045;-80
2022/01/02 11:39:52;;;;;;;1.67;0.65;;;;;;;9.97;74.87;99516.91;5012652;28;20048;-79
2022/01/02 11:42:42;;;;;;;6.80;0.77;;;;;;;10.02;74.91;99513.81;5021973;28;20117;-80
2022/01/02 11:45:33;;;;;;;2.45;0.65;;;;;;;10.02;75.42;99520.16;5021394;28;20135;-79
2022/01/02 11:48:20;;;;;;;3.13;0.40;;;;;;;10.02;75.20;99522.09;5023861;28;20058;-80